sensor_id;sensor_type;location;lat;lon;timestamp;pressure;altitude;pressure_sealevel;temperature;humidity
42887;BME280;29032;56.028;92.904;2023-07-09T00:00:35;98554.91;;;21.41;64.42
42887;BME280;29032;56.028;92.904;2023-07-09T00:05:37;98550.00;;;21.42;64.43
42887;BME280;29032;56.028;92.904;2023-07-09T00:10:39;98557.47;;;21.49;64.09
42887;BME280;29032;56.028;92.904;2023-07-09T00:15:42;98572.66;;;21.56;64.08
42887;BME280;29032;56.028;92.904;2023-07-09T00:20:45;98565.94;;;21.49;63.91
42887;BME280;29032;56.028;92.904;2023-07-09T00:25:47;98574.72;;;21.55;64.01
42887;BME280;29032;56.028;92.904;2023-07-09T00:30:51;98583.25;;;21.69;64.04
42887;BME280;29032;56.028;92.904;2023-07-09T00:35:53;98573.06;;;21.75;63.45
42887;BME280;29032;56.028;92.904;2023-07-09T00:41:02;98585.69;;;21.86;63.58
42887;BME280;29032;56.028;92.904;2023-07-09T00:46:16;98588.63;;;21.88;63.41
42887;BME280;29032;56.028;92.904;2023-07-09T00:51:20;98578.22;;;21.79;63.67
42887;BME280;29032;56.028;92.904;2023-07-09T00:56:27;98582.97;;;21.88;63.63
42887;BME280;29032;56.028;92.904;2023-07-09T01:01:33;98596.13;;;21.84;63.55
42887;BME280;29032;56.028;92.904;2023-07-09T01:06:39;98598.81;;;21.82;63.40
42887;BME280;29032;56.028;92.904;2023-07-09T01:11:43;98599.63;;;21.70;63.60
42887;BME280;29032;56.028;92.904;2023-07-09T01:16:49;98598.47;;;21.75;63.72
42887;BME280;29032;56.028;92.904;2023-07-09T01:21:55;98590.63;;;21.74;63.76
42887;BME280;29032;56.028;92.904;2023-07-09T01:26:57;98597.72;;;21.75;63.56
42887;BME280;29032;56.028;92.904;2023-07-09T01:31:59;98592.94;;;21.78;63.66
42887;BME280;29032;56.028;92.904;2023-07-09T01:37:03;98600.41;;;21.85;63.53
42887;BME280;29032;56.028;92.904;2023-07-09T01:42:05;98603.38;;;21.87;63.82
42887;BME280;29032;56.028;92.904;2023-07-09T01:47:07;98603.38;;;21.87;63.62
42887;BME280;29032;56.028;92.904;2023-07-09T01:52:14;98603.81;;;21.95;63.63
42887;BME280;29032;56.028;92.904;2023-07-09T01:57:18;98605.53;;;22.00;63.09
42887;BME280;29032;56.028;92.904;2023-07-09T02:02:21;98608.47;;;22.02;63.23
42887;BME280;29032;56.028;92.904;2023-07-09T02:07:25;98611.72;;;22.10;63.01
42887;BME280;29032;56.028;92.904;2023-07-09T02:12:27;98605.88;;;22.06;63.98
42887;BME280;29032;56.028;92.904;2023-07-09T02:17:29;98611.84;;;22.12;62.90
42887;BME280;29032;56.028;92.904;2023-07-09T02:22:33;98603.59;;;22.16;63.06
42887;BME280;29032;56.028;92.904;2023-07-09T02:27:36;98610.72;;;22.17;62.58
42887;BME280;29032;56.028;92.904;2023-07-09T02:32:38;98609.25;;;22.16;62.55
42887;BME280;29032;56.028;92.904;2023-07-09T02:37:42;98604.66;;;22.23;62.39
42887;BME280;29032;56.028;92.904;2023-07-09T02:42:44;98612.50;;;22.24;62.41
42887;BME280;29032;56.028;92.904;2023-07-09T02:47:46;98614.44;;;22.34;61.93
42887;BME280;29032;56.028;92.904;2023-07-09T02:52:50;98604.31;;;22.42;62.31
42887;BME280;29032;56.028;92.904;2023-07-09T02:57:52;98594.47;;;22.43;61.69
42887;BME280;29032;56.028;92.904;2023-07-09T03:02:54;98591.34;;;22.51;61.55
42887;BME280;29032;56.028;92.904;2023-07-09T03:07:57;98588.47;;;22.63;62.24
42887;BME280;29032;56.028;92.904;2023-07-09T03:12:59;98589.63;;;22.71;61.06
42887;BME280;29032;56.028;92.904;2023-07-09T03:18:02;98577.34;;;22.80;60.31
42887;BME280;29032;56.028;92.904;2023-07-09T03:23:05;98586.06;;;22.84;59.86
42887;BME280;29032;56.028;92.904;2023-07-09T03:28:07;98567.63;;;22.83;59.34
42887;BME280;29032;56.028;92.904;2023-07-09T03:33:09;98576.44;;;22.90;59.22
42887;BME280;29032;56.028;92.904;2023-07-09T03:38:13;98563.53;;;23.00;59.15
42887;BME280;29032;56.028;92.904;2023-07-09T03:43:15;98562.47;;;23.07;58.93
42887;BME280;29032;56.028;92.904;2023-07-09T03:48:18;98570.63;;;23.15;58.86
42887;BME280;29032;56.028;92.904;2023-07-09T03:53:22;98570.22;;;23.21;58.71
42887;BME280;29032;56.028;92.904;2023-07-09T03:58:24;98573.47;;;23.15;58.44
42887;BME280;29032;56.028;92.904;2023-07-09T04:03:26;98572.22;;;23.18;58.17
42887;BME280;29032;56.028;92.904;2023-07-09T04:08:30;98575.34;;;23.24;58.59
42887;BME280;29032;56.028;92.904;2023-07-09T04:13:32;98573.44;;;23.29;57.49
42887;BME280;29032;56.028;92.904;2023-07-09T04:18:34;98577.25;;;23.33;57.90
42887;BME280;29032;56.028;92.904;2023-07-09T04:23:38;98572.22;;;23.46;58.19
42887;BME280;29032;56.028;92.904;2023-07-09T04:28:40;98578.88;;;23.52;57.73
42887;BME280;29032;56.028;92.904;2023-07-09T04:33:42;98576.25;;;23.56;57.72
42887;BME280;29032;56.028;92.904;2023-07-09T04:38:45;98573.91;;;23.66;58.06
42887;BME280;29032;56.028;92.904;2023-07-09T04:43:47;98568.06;;;23.62;57.99
42887;BME280;29032;56.028;92.904;2023-07-09T04:48:49;98571.72;;;23.65;57.22
42887;BME280;29032;56.028;92.904;2023-07-09T04:53:53;98572.44;;;23.65;57.43
42887;BME280;29032;56.028;92.904;2023-07-09T04:58:55;98569.00;;;23.67;57.49
42887;BME280;29032;56.028;92.904;2023-07-09T05:03:57;98578.41;;;23.72;57.63
42887;BME280;29032;56.028;92.904;2023-07-09T05:09:01;98577.44;;;23.81;56.98
42887;BME280;29032;56.028;92.904;2023-07-09T05:14:03;98562.44;;;23.78;57.15
42887;BME280;29032;56.028;92.904;2023-07-09T05:19:07;98567.75;;;23.86;57.30
42887;BME280;29032;56.028;92.904;2023-07-09T05:24:10;98566.69;;;23.93;56.58
42887;BME280;29032;56.028;92.904;2023-07-09T05:29:12;98570.38;;;23.96;56.74
42887;BME280;29032;56.028;92.904;2023-07-09T05:34:15;98567.94;;;24.04;56.41
42887;BME280;29032;56.028;92.904;2023-07-09T05:39:18;98568.09;;;24.08;55.66
42887;BME280;29032;56.028;92.904;2023-07-09T05:44:20;98560.91;;;24.05;55.45
42887;BME280;29032;56.028;92.904;2023-07-09T05:49:22;98561.06;;;24.09;55.03
42887;BME280;29032;56.028;92.904;2023-07-09T05:54:26;98557.25;;;24.18;55.27
42887;BME280;29032;56.028;92.904;2023-07-09T05:59:28;98557.44;;;24.22;55.11
42887;BME280;29032;56.028;92.904;2023-07-09T06:04:30;98542.16;;;24.29;54.93
42887;BME280;29032;56.028;92.904;2023-07-09T06:09:34;98544.09;;;24.40;54.71
42887;BME280;29032;56.028;92.904;2023-07-09T06:14:36;98528.75;;;24.45;55.00
42887;BME280;29032;56.028;92.904;2023-07-09T06:19:38;98536.22;;;24.55;54.47
42887;BME280;29032;56.028;92.904;2023-07-09T06:24:44;98531.09;;;24.67;53.39
42887;BME280;29032;56.028;92.904;2023-07-09T06:29:46;98524.50;;;24.78;54.15
42887;BME280;29032;56.028;92.904;2023-07-09T06:34:48;98514.41;;;24.91;53.14
42887;BME280;29032;56.028;92.904;2023-07-09T06:39:52;98513.09;;;25.10;51.70
42887;BME280;29032;56.028;92.904;2023-07-09T06:44:54;98503.19;;;25.11;51.75
42887;BME280;29032;56.028;92.904;2023-07-09T06:49:56;98500.28;;;25.09;54.15
42887;BME280;29032;56.028;92.904;2023-07-09T06:55:00;98497.25;;;25.05;54.16
42887;BME280;29032;56.028;92.904;2023-07-09T07:00:03;98496.44;;;25.02;54.34
42887;BME280;29032;56.028;92.904;2023-07-09T07:05:05;98491.63;;;25.22;53.71
42887;BME280;29032;56.028;92.904;2023-07-09T07:10:09;98473.78;;;25.38;53.67
42887;BME280;29032;56.028;92.904;2023-07-09T07:15:13;98472.13;;;25.33;53.86
42887;BME280;29032;56.028;92.904;2023-07-09T07:20:16;98470.63;;;25.29;53.56
42887;BME280;29032;56.028;92.904;2023-07-09T07:25:20;98460.66;;;25.46;53.41
42887;BME280;29032;56.028;92.904;2023-07-09T07:30:22;98459.03;;;25.59;51.94
42887;BME280;29032;56.028;92.904;2023-07-09T07:35:24;98454.56;;;25.54;53.59
42887;BME280;29032;56.028;92.904;2023-07-09T07:40:28;98439.44;;;25.49;52.63
42887;BME280;29032;56.028;92.904;2023-07-09T07:45:30;98446.03;;;25.36;53.34
42887;BME280;29032;56.028;92.904;2023-07-09T07:50:32;98438.53;;;25.27;53.69
42887;BME280;29032;56.028;92.904;2023-07-09T07:55:36;98444.47;;;25.33;53.84
42887;BME280;29032;56.028;92.904;2023-07-09T08:00:38;98437.34;;;25.32;54.37
42887;BME280;29032;56.028;92.904;2023-07-09T08:05:40;98441.38;;;25.27;53.57
42887;BME280;29032;56.028;92.904;2023-07-09T08:10:44;98444.16;;;25.25;54.78
42887;BME280;29032;56.028;92.904;2023-07-09T08:15:46;98443.41;;;25.07;54.99
42887;BME280;29032;56.028;92.904;2023-07-09T08:20:48;98468.63;;;24.98;55.28
42887;BME280;29032;56.028;92.904;2023-07-09T08:25:55;98473.22;;;24.90;54.54
42887;BME280;29032;56.028;92.904;2023-07-09T08:30:57;98465.06;;;24.48;58.39
42887;BME280;29032;56.028;92.904;2023-07-09T08:35:59;98479.16;;;24.15;57.80
42887;BME280;29032;56.028;92.904;2023-07-09T08:41:08;98480.16;;;24.06;58.93
42887;BME280;29032;56.028;92.904;2023-07-09T08:46:20;98491.91;;;23.84;61.77
42887;BME280;29032;56.028;92.904;2023-07-09T08:51:29;98488.41;;;23.70;63.35
42887;BME280;29032;56.028;92.904;2023-07-09T08:56:36;98481.47;;;23.73;62.76
42887;BME280;29032;56.028;92.904;2023-07-09T09:01:44;98481.53;;;24.05;56.52
42887;BME280;29032;56.028;92.904;2023-07-09T09:06:53;98480.63;;;24.32;54.40
42887;BME280;29032;56.028;92.904;2023-07-09T09:12:10;98483.41;;;24.79;56.10
42887;BME280;29032;56.028;92.904;2023-07-09T09:17:17;98492.63;;;24.95;56.22
42887;BME280;29032;56.028;92.904;2023-07-09T09:22:23;98490.78;;;24.86;57.18
42887;BME280;29032;56.028;92.904;2023-07-09T09:27:29;98488.84;;;24.73;59.80
42887;BME280;29032;56.028;92.904;2023-07-09T09:32:36;98478.22;;;24.73;55.24
42887;BME280;29032;56.028;92.904;2023-07-09T09:37:46;98474.19;;;24.63;54.76
42887;BME280;29032;56.028;92.904;2023-07-09T09:42:56;98474.38;;;24.51;58.22
42887;BME280;29032;56.028;92.904;2023-07-09T09:47:59;98510.06;;;24.40;57.18
42887;BME280;29032;56.028;92.904;2023-07-09T09:53:01;98506.78;;;24.30;56.07
42887;BME280;29032;56.028;92.904;2023-07-09T09:58:14;98514.75;;;24.34;57.01
42887;BME280;29032;56.028;92.904;2023-07-09T10:03:16;98508.50;;;24.06;58.96
42887;BME280;29032;56.028;92.904;2023-07-09T10:08:28;98511.72;;;24.14;57.81
42887;BME280;29032;56.028;92.904;2023-07-09T10:13:39;98505.44;;;24.02;55.80
42887;BME280;29032;56.028;92.904;2023-07-09T10:18:51;98501.06;;;23.99;56.32
42887;BME280;29032;56.028;92.904;2023-07-09T10:24:11;98494.88;;;24.02;56.04
42887;BME280;29032;56.028;92.904;2023-07-09T10:29:38;98492.66;;;24.01;56.19
42887;BME280;29032;56.028;92.904;2023-07-09T10:34:50;98477.09;;;24.02;56.61
42887;BME280;29032;56.028;92.904;2023-07-09T10:39:58;98459.38;;;24.01;57.57
42887;BME280;29032;56.028;92.904;2023-07-09T10:45:09;98456.00;;;24.36;56.00
42887;BME280;29032;56.028;92.904;2023-07-09T10:50:17;98458.63;;;24.64;55.87
42887;BME280;29032;56.028;92.904;2023-07-09T10:55:29;98444.28;;;24.93;56.20
42887;BME280;29032;56.028;92.904;2023-07-09T11:00:36;98439.28;;;25.10;55.32
42887;BME280;29032;56.028;92.904;2023-07-09T11:05:39;98440.91;;;25.15;54.98
42887;BME280;29032;56.028;92.904;2023-07-09T11:10:49;98450.63;;;25.27;54.44
42887;BME280;29032;56.028;92.904;2023-07-09T11:15:56;98454.72;;;25.22;55.71
42887;BME280;29032;56.028;92.904;2023-07-09T11:21:00;98463.94;;;25.23;56.52
42887;BME280;29032;56.028;92.904;2023-07-09T11:26:13;98471.50;;;25.16;57.14
42887;BME280;29032;56.028;92.904;2023-07-09T11:31:22;98478.69;;;25.01;58.17
42887;BME280;29032;56.028;92.904;2023-07-09T11:36:26;98477.72;;;24.79;58.84
42887;BME280;29032;56.028;92.904;2023-07-09T11:41:38;98482.22;;;24.68;59.36
42887;BME280;29032;56.028;92.904;2023-07-09T11:46:51;98479.50;;;24.55;60.61
42887;BME280;29032;56.028;92.904;2023-07-09T11:51:57;98482.81;;;24.33;59.39
42887;BME280;29032;56.028;92.904;2023-07-09T11:57:00;98482.63;;;24.13;59.72
42887;BME280;29032;56.028;92.904;2023-07-09T12:02:08;98490.13;;;24.07;60.09
42887;BME280;29032;56.028;92.904;2023-07-09T12:07:16;98491.09;;;23.98;60.37
42887;BME280;29032;56.028;92.904;2023-07-09T12:12:21;98496.69;;;23.96;60.59
42887;BME280;29032;56.028;92.904;2023-07-09T12:17:26;98493.75;;;23.93;60.34
42887;BME280;29032;56.028;92.904;2023-07-09T12:22:29;98487.53;;;23.97;60.27
42887;BME280;29032;56.028;92.904;2023-07-09T12:27:31;98498.16;;;23.97;60.36
42887;BME280;29032;56.028;92.904;2023-07-09T12:32:43;98510.25;;;24.13;60.57
42887;BME280;29032;56.028;92.904;2023-07-09T12:37:46;98514.09;;;24.04;60.27
42887;BME280;29032;56.028;92.904;2023-07-09T12:42:49;98513.22;;;24.01;60.99
42887;BME280;29032;56.028;92.904;2023-07-09T12:47:53;98515.19;;;24.12;60.82
42887;BME280;29032;56.028;92.904;2023-07-09T12:53:01;98519.75;;;24.19;60.58
42887;BME280;29032;56.028;92.904;2023-07-09T12:58:03;98530.28;;;24.17;59.83
42887;BME280;29032;56.028;92.904;2023-07-09T13:03:14;98532.03;;;24.24;60.34
42887;BME280;29032;56.028;92.904;2023-07-09T13:08:16;98531.56;;;24.14;59.03
42887;BME280;29032;56.028;92.904;2023-07-09T13:13:20;98536.84;;;24.22;56.64
42887;BME280;29032;56.028;92.904;2023-07-09T13:18:25;98536.31;;;24.25;56.17
42887;BME280;29032;56.028;92.904;2023-07-09T13:23:28;98540.63;;;24.26;56.54
42887;BME280;29032;56.028;92.904;2023-07-09T13:28:31;98533.50;;;24.25;56.37
42887;BME280;29032;56.028;92.904;2023-07-09T13:33:35;98539.59;;;24.19;56.91
42887;BME280;29032;56.028;92.904;2023-07-09T13:38:37;98531.25;;;24.08;59.10
42887;BME280;29032;56.028;92.904;2023-07-09T13:43:42;98532.44;;;24.03;60.02
42887;BME280;29032;56.028;92.904;2023-07-09T13:48:46;98532.16;;;23.97;60.13
42887;BME280;29032;56.028;92.904;2023-07-09T13:53:48;98530.19;;;23.85;59.82
42887;BME280;29032;56.028;92.904;2023-07-09T13:58:51;98531.47;;;23.82;58.50
42887;BME280;29032;56.028;92.904;2023-07-09T14:03:56;98539.25;;;23.82;58.85
42887;BME280;29032;56.028;92.904;2023-07-09T14:08:59;98524.13;;;24.07;57.92
42887;BME280;29032;56.028;92.904;2023-07-09T14:14:01;98532.44;;;23.73;58.44
42887;BME280;29032;56.028;92.904;2023-07-09T14:19:10;98537.94;;;23.69;59.78
42887;BME280;29032;56.028;92.904;2023-07-09T14:24:19;98554.63;;;23.63;60.32
42887;BME280;29032;56.028;92.904;2023-07-09T14:29:22;98549.94;;;23.54;59.85
42887;BME280;29032;56.028;92.904;2023-07-09T14:34:28;98540.38;;;23.61;59.61
42887;BME280;29032;56.028;92.904;2023-07-09T14:39:30;98531.59;;;23.55;59.80
42887;BME280;29032;56.028;92.904;2023-07-09T14:44:33;98540.09;;;23.55;59.80
42887;BME280;29032;56.028;92.904;2023-07-09T14:49:36;98543.22;;;23.61;59.32
42887;BME280;29032;56.028;92.904;2023-07-09T14:54:38;98532.31;;;23.55;58.87
42887;BME280;29032;56.028;92.904;2023-07-09T14:59:40;98551.19;;;23.51;59.48
42887;BME280;29032;56.028;92.904;2023-07-09T15:04:44;98536.94;;;23.49;58.42
42887;BME280;29032;56.028;92.904;2023-07-09T15:09:46;98545.69;;;23.39;58.11
42887;BME280;29032;56.028;92.904;2023-07-09T15:14:48;98548.06;;;23.31;58.23
42887;BME280;29032;56.028;92.904;2023-07-09T15:19:53;98555.22;;;23.32;58.40
42887;BME280;29032;56.028;92.904;2023-07-09T15:24:55;98547.03;;;23.24;58.73
42887;BME280;29032;56.028;92.904;2023-07-09T15:29:57;98540.53;;;23.22;58.90
42887;BME280;29032;56.028;92.904;2023-07-09T15:35:01;98548.22;;;23.19;59.57
42887;BME280;29032;56.028;92.904;2023-07-09T15:40:05;98548.41;;;23.09;60.35
42887;BME280;29032;56.028;92.904;2023-07-09T15:45:16;98550.34;;;22.91;61.45
42887;BME280;29032;56.028;92.904;2023-07-09T15:50:22;98555.03;;;22.87;62.00
42887;BME280;29032;56.028;92.904;2023-07-09T15:55:26;98556.81;;;22.80;62.83
42887;BME280;29032;56.028;92.904;2023-07-09T16:00:30;98558.72;;;22.75;62.77
42887;BME280;29032;56.028;92.904;2023-07-09T16:05:36;98567.09;;;22.73;63.05
42887;BME280;29032;56.028;92.904;2023-07-09T16:10:38;98561.63;;;22.64;62.98
42887;BME280;29032;56.028;92.904;2023-07-09T16:15:40;98568.66;;;22.63;63.22
42887;BME280;29032;56.028;92.904;2023-07-09T16:20:44;98574.66;;;22.69;63.07
42887;BME280;29032;56.028;92.904;2023-07-09T16:25:47;98572.13;;;22.61;63.23
42887;BME280;29032;56.028;92.904;2023-07-09T16:30:49;98561.94;;;22.56;63.03
42887;BME280;29032;56.028;92.904;2023-07-09T16:35:53;98574.06;;;22.58;63.32
42887;BME280;29032;56.028;92.904;2023-07-09T16:40:55;98577.94;;;22.51;63.31
42887;BME280;29032;56.028;92.904;2023-07-09T16:45:57;98575.72;;;22.50;63.40
42887;BME280;29032;56.028;92.904;2023-07-09T16:51:01;98573.22;;;22.56;63.40
42887;BME280;29032;56.028;92.904;2023-07-09T16:56:03;98582.66;;;22.47;63.65
42887;BME280;29032;56.028;92.904;2023-07-09T17:01:06;98573.31;;;22.44;63.92
42887;BME280;29032;56.028;92.904;2023-07-09T17:06:09;98576.47;;;22.50;63.84
42887;BME280;29032;56.028;92.904;2023-07-09T17:11:12;98578.13;;;22.42;63.76
42887;BME280;29032;56.028;92.904;2023-07-09T17:16:14;98573.19;;;22.28;64.01
42887;BME280;29032;56.028;92.904;2023-07-09T17:21:18;98575.44;;;22.18;64.38
42887;BME280;29032;56.028;92.904;2023-07-09T17:26:20;98566.19;;;22.04;64.68
42887;BME280;29032;56.028;92.904;2023-07-09T17:31:22;98568.81;;;22.00;64.79
42887;BME280;29032;56.028;92.904;2023-07-09T17:36:25;98559.41;;;22.09;64.85
42887;BME280;29032;56.028;92.904;2023-07-09T17:41:27;98559.50;;;22.11;64.27
42887;BME280;29032;56.028;92.904;2023-07-09T17:46:29;98559.75;;;22.15;64.06
42887;BME280;29032;56.028;92.904;2023-07-09T17:51:33;98554.63;;;22.25;63.62
42887;BME280;29032;56.028;92.904;2023-07-09T17:56:35;98549.50;;;22.22;63.56
42887;BME280;29032;56.028;92.904;2023-07-09T18:01:38;98544.47;;;22.20;63.57
42887;BME280;29032;56.028;92.904;2023-07-09T18:06:44;98547.50;;;22.24;64.14
42887;BME280;29032;56.028;92.904;2023-07-09T18:11:48;98547.50;;;22.24;63.73
42887;BME280;29032;56.028;92.904;2023-07-09T18:16:52;98560.28;;;22.25;63.53
42887;BME280;29032;56.028;92.904;2023-07-09T18:22:00;98570.00;;;22.22;63.80
42887;BME280;29032;56.028;92.904;2023-07-09T18:27:03;98569.34;;;22.10;64.28
42887;BME280;29032;56.028;92.904;2023-07-09T18:32:07;98582.88;;;22.12;63.94
42887;BME280;29032;56.028;92.904;2023-07-09T18:37:17;98587.66;;;22.09;64.05
42887;BME280;29032;56.028;92.904;2023-07-09T18:42:20;98577.31;;;21.88;64.55
42887;BME280;29032;56.028;92.904;2023-07-09T18:47:23;98593.53;;;21.88;64.40
42887;BME280;29032;56.028;92.904;2023-07-09T18:52:27;98593.03;;;21.91;65.34
42887;BME280;29032;56.028;92.904;2023-07-09T18:57:30;98584.69;;;21.82;64.93
42887;BME280;29032;56.028;92.904;2023-07-09T19:02:32;98583.75;;;21.77;64.26
42887;BME280;29032;56.028;92.904;2023-07-09T19:07:36;98584.69;;;21.82;64.15
42887;BME280;29032;56.028;92.904;2023-07-09T19:12:38;98581.53;;;21.75;65.00
42887;BME280;29032;56.028;92.904;2023-07-09T19:17:40;98583.13;;;21.79;64.88
42887;BME280;29032;56.028;92.904;2023-07-09T19:22:44;98576.84;;;21.80;64.80
42887;BME280;29032;56.028;92.904;2023-07-09T19:27:46;98577.38;;;21.77;64.61
42887;BME280;29032;56.028;92.904;2023-07-09T19:32:50;98575.66;;;21.71;65.13
42887;BME280;29032;56.028;92.904;2023-07-09T19:37:57;98566.31;;;21.69;65.07
42887;BME280;29032;56.028;92.904;2023-07-09T19:42:59;98571.03;;;21.64;64.53
42887;BME280;29032;56.028;92.904;2023-07-09T19:48:01;98580.34;;;21.67;64.98
42887;BME280;29032;56.028;92.904;2023-07-09T19:53:17;98567.75;;;21.82;64.71
42887;BME280;29032;56.028;92.904;2023-07-09T19:58:19;98565.66;;;21.57;65.08
42887;BME280;29032;56.028;92.904;2023-07-09T20:03:23;98569.31;;;21.59;64.80
42887;BME280;29032;56.028;92.904;2023-07-09T20:08:27;98569.06;;;21.55;65.00
42887;BME280;29032;56.028;92.904;2023-07-09T20:13:31;98568.88;;;21.51;65.24
42887;BME280;29032;56.028;92.904;2023-07-09T20:18:44;98573.53;;;21.46;64.87
42887;BME280;29032;56.028;92.904;2023-07-09T20:23:47;98575.72;;;21.48;65.14
42887;BME280;29032;56.028;92.904;2023-07-09T20:28:49;98564.59;;;21.38;65.25
42887;BME280;29032;56.028;92.904;2023-07-09T20:34:04;98565.44;;;21.41;65.62
42887;BME280;29032;56.028;92.904;2023-07-09T20:39:14;98573.22;;;21.29;65.88
42887;BME280;29032;56.028;92.904;2023-07-09T20:44:20;98568.81;;;21.26;66.21
42887;BME280;29032;56.028;92.904;2023-07-09T20:49:27;98560.97;;;21.24;65.75
42887;BME280;29032;56.028;92.904;2023-07-09T20:54:31;98555.81;;;21.20;65.99
42887;BME280;29032;56.028;92.904;2023-07-09T20:59:33;98556.44;;;21.19;65.92
42887;BME280;29032;56.028;92.904;2023-07-09T21:04:35;98555.22;;;21.22;65.17
42887;BME280;29032;56.028;92.904;2023-07-09T21:09:39;98561.31;;;21.30;65.27
42887;BME280;29032;56.028;92.904;2023-07-09T21:14:42;98558.38;;;21.28;65.02
42887;BME280;29032;56.028;92.904;2023-07-09T21:19:44;98573.84;;;21.27;65.12
42887;BME280;29032;56.028;92.904;2023-07-09T21:24:50;98566.22;;;21.30;65.09
42887;BME280;29032;56.028;92.904;2023-07-09T21:29:52;98586.88;;;21.20;65.53
42887;BME280;29032;56.028;92.904;2023-07-09T21:34:55;98585.25;;;21.29;64.91
42887;BME280;29032;56.028;92.904;2023-07-09T21:40:01;98594.34;;;21.28;65.29
42887;BME280;29032;56.028;92.904;2023-07-09T21:45:03;98602.81;;;21.28;64.69
42887;BME280;29032;56.028;92.904;2023-07-09T21:50:08;98603.66;;;21.30;64.99
42887;BME280;29032;56.028;92.904;2023-07-09T21:55:15;98611.00;;;21.35;64.63
42887;BME280;29032;56.028;92.904;2023-07-09T22:00:19;98607.19;;;21.31;64.63
42887;BME280;29032;56.028;92.904;2023-07-09T22:05:23;98605.34;;;21.35;64.72
42887;BME280;29032;56.028;92.904;2023-07-09T22:10:31;98609.38;;;21.44;64.42
42887;BME280;29032;56.028;92.904;2023-07-09T22:15:34;98603.50;;;21.40;63.98
42887;BME280;29032;56.028;92.904;2023-07-09T22:20:36;98604.97;;;21.41;63.84
42887;BME280;29032;56.028;92.904;2023-07-09T22:25:40;98603.84;;;21.46;64.25
42887;BME280;29032;56.028;92.904;2023-07-09T22:30:42;98596.13;;;21.46;64.09
42887;BME280;29032;56.028;92.904;2023-07-09T22:35:44;98601.38;;;21.52;63.66
42887;BME280;29032;56.028;92.904;2023-07-09T22:40:48;98599.91;;;21.51;63.54
42887;BME280;29032;56.028;92.904;2023-07-09T22:45:50;98603.13;;;21.45;63.59
42887;BME280;29032;56.028;92.904;2023-07-09T22:50:52;98605.94;;;21.45;63.32
42887;BME280;29032;56.028;92.904;2023-07-09T22:55:58;98611.41;;;21.55;63.71
42887;BME280;29032;56.028;92.904;2023-07-09T23:01:10;98627.53;;;21.53;63.45
42887;BME280;29032;56.028;92.904;2023-07-09T23:06:17;98629.50;;;21.50;63.58
42887;BME280;29032;56.028;92.904;2023-07-09T23:11:24;98626.78;;;21.52;63.28
42887;BME280;29032;56.028;92.904;2023-07-09T23:16:28;98628.88;;;21.40;63.65
42887;BME280;29032;56.028;92.904;2023-07-09T23:21:30;98626.22;;;21.42;63.46
42887;BME280;29032;56.028;92.904;2023-07-09T23:26:34;98636.59;;;21.51;63.47
42887;BME280;29032;56.028;92.904;2023-07-09T23:31:38;98634.41;;;21.50;62.97
42887;BME280;29032;56.028;92.904;2023-07-09T23:36:41;98637.34;;;21.52;63.05
42887;BME280;29032;56.028;92.904;2023-07-09T23:41:47;98638.31;;;21.56;63.27
42887;BME280;29032;56.028;92.904;2023-07-09T23:46:49;98646.91;;;21.46;63.70
42887;BME280;29032;56.028;92.904;2023-07-09T23:51:51;98656.25;;;21.49;63.79
42887;BME280;29032;56.028;92.904;2023-07-09T23:56:55;98659.19;;;21.51;64.33
